Time;durP1;ratioP1;P1;durP2;ratioP2;P2;SDS_P1;SDS_P2;PMS_P1;PMS_P2;Temp;Humidity;BMP_temperature;BMP_pressure;BME280_temperature;BME280_humidity;BME280_pressure;Samples;Min_cycle;Max_cycle;Signal;HPM_P1;HPM_P2
2022/10/28 00:01:22;;;;;;;8.43;3.60;;;;;;;-146.48;100.00;60459.00;5303192;28;20024;-70
2022/10/28 00:03:56;;;;;;;8.20;3.50;;;;;;;-146.48;100.00;60459.00;5301337;28;20032;-69
2022/10/28 00:06:33;;;;;;;10.77;3.88;;;;;;;-146.48;100.00;60459.00;5302563;28;20468;-70
2022/10/28 00:09:05;;;;;;;7.72;4.50;;;;;;;-146.48;100.00;60459.00;5302328;28;20442;-69
2022/10/28 00:11:36;;;;;;;9.07;3.42;;;;;;;-146.48;100.00;60459.00;5302300;28;20116;-69
2022/10/28 00:14:09;;;;;;;11.35;3.42;;;;;;;-146.48;100.00;60459.00;5302892;28;20024;-70
2022/10/28 00:16:40;;;;;;;9.52;4.07;;;;;;;-146.48;100.00;60459.00;5301468;28;20410;-69
2022/10/28 00:19:12;;;;;;;10.07;4.80;;;;;;;-146.48;100.00;60459.00;5302765;28;20022;-69
2022/10/28 00:21:44;;;;;;;8.77;3.78;;;;;;;-146.48;100.00;60459.00;5302399;28;20467;-69
2022/10/28 00:24:15;;;;;;;7.10;3.60;;;;;;;-146.48;100.00;60459.00;5301919;28;20035;-69
2022/10/28 00:26:47;;;;;;;10.13;4.18;;;;;;;-146.48;100.00;60459.00;5302037;28;20101;-69
2022/10/28 00:29:19;;;;;;;7.35;3.45;;;;;;;-146.48;100.00;60459.00;5302531;28;20052;-69
2022/10/28 00:31:51;;;;;;;7.45;3.80;;;;;;;-146.48;100.00;60459.00;5301464;28;20391;-69
2022/10/28 00:34:22;;;;;;;9.95;4.25;;;;;;;-146.48;100.00;60459.00;5302745;28;20509;-69
2022/10/28 00:36:54;;;;;;;10.68;3.63;;;;;;;-146.48;100.00;60459.00;5301213;28;20103;-70
2022/10/28 00:39:26;;;;;;;8.45;4.47;;;;;;;-146.48;100.00;60459.00;5302331;28;20130;-70
2022/10/28 00:42:02;;;;;;;7.20;3.78;;;;;;;-146.48;100.00;60459.00;5302790;28;20024;-70
2022/10/28 00:44:59;;;;;;;8.15;4.00;;;;;;;-146.48;100.00;60459.00;5300983;28;20031;-69
2022/10/28 00:47:50;;;;;;;8.40;3.55;;;;;;;-146.48;100.00;60459.00;5306152;28;20024;-70
2022/10/28 00:50:40;;;;;;;11.55;4.13;;;;;;;-146.48;100.00;60459.00;5306830;28;20031;-70
2022/10/28 00:53:19;;;;;;;10.73;4.10;;;;;;;-146.48;100.00;60459.00;5305984;28;20475;-69
2022/10/28 00:55:51;;;;;;;7.68;4.13;;;;;;;-146.48;100.00;60459.00;5306075;28;20487;-69
2022/10/28 00:58:25;;;;;;;10.50;3.47;;;;;;;-146.48;100.00;60459.00;5305679;28;20055;-70
2022/10/28 01:00:56;;;;;;;9.55;4.18;;;;;;;-146.48;100.00;60459.00;5306287;28;20042;-69
2022/10/28 01:03:28;;;;;;;10.55;4.15;;;;;;;-146.48;100.00;60459.00;5305969;28;20483;-70
2022/10/28 01:06:00;;;;;;;7.53;3.65;;;;;;;-146.48;100.00;60459.00;5305660;28;20021;-69
2022/10/28 01:08:31;;;;;;;7.53;3.35;;;;;;;-146.48;100.00;60459.00;5305653;28;20058;-70
2022/10/28 01:11:21;;;;;;;9.80;3.95;;;;;;;-146.48;100.00;60459.00;5306649;28;20495;-70
2022/10/28 01:14:21;;;;;;;7.68;3.90;;;;;;;-146.48;100.00;60459.00;5305030;28;20115;-69
2022/10/28 01:17:10;;;;;;;8.50;3.42;;;;;;;-146.48;100.00;60459.00;5305618;28;20176;-68
2022/10/28 01:20:00;;;;;;;8.80;3.65;;;;;;;-146.48;100.00;60459.00;5305200;28;20049;-71
2022/10/28 01:22:53;;;;;;;6.07;3.63;;;;;;;-146.48;100.00;60459.00;5305666;28;20024;-71
2022/10/28 01:25:55;;;;;;;7.43;3.22;;;;;;;-146.48;100.00;60459.00;5306028;28;20103;-71
2022/10/28 01:28:54;;;;;;;7.47;3.40;;;;;;;-146.48;100.00;60459.00;5305524;28;20032;-71
2022/10/28 01:31:36;;;;;;;6.97;3.28;;;;;;;-146.48;100.00;60459.00;5305733;28;20449;-71
2022/10/28 01:34:38;;;;;;;6.53;3.20;;;;;;;-146.48;100.00;60459.00;5305513;28;20035;-71
2022/10/28 01:37:24;;;;;;;11.77;3.50;;;;;;;-146.48;100.00;60459.00;5306019;28;20036;-71
2022/10/28 01:40:10;;;;;;;6.60;3.22;;;;;;;-146.48;100.00;60459.00;5305634;28;20028;-71
2022/10/28 01:42:49;;;;;;;10.68;3.30;;;;;;;-146.48;100.00;60459.00;5305545;28;20024;-71
2022/10/28 01:45:26;;;;;;;11.95;4.63;;;;;;;-146.48;100.00;60459.00;5305805;28;20028;-71
2022/10/28 01:48:09;;;;;;;8.27;3.67;;;;;;;-146.48;100.00;60459.00;5304957;28;20031;-71
2022/10/28 01:50:49;;;;;;;9.95;4.15;;;;;;;-146.48;100.00;60459.00;5305306;28;20471;-71
2022/10/28 01:53:26;;;;;;;11.05;3.95;;;;;;;-146.48;100.00;60459.00;5305667;28;20035;-71
2022/10/28 01:56:06;;;;;;;10.90;3.25;;;;;;;-146.48;100.00;60459.00;5304778;28;20023;-71
2022/10/28 01:58:39;;;;;;;6.40;3.25;;;;;;;-146.48;100.00;60459.00;5304040;28;20024;-71
2022/10/28 02:01:11;;;;;;;7.97;2.97;;;;;;;-146.48;100.00;60459.00;5304884;28;20526;-71
2022/10/28 02:03:46;;;;;;;5.40;3.40;;;;;;;-146.48;100.00;60459.00;5304840;28;20063;-71
2022/10/28 02:06:21;;;;;;;9.00;3.47;;;;;;;-146.48;100.00;60459.00;5305316;28;20032;-71
2022/10/28 02:09:18;;;;;;;7.22;3.45;;;;;;;-146.48;100.00;60459.00;5303811;28;20039;-71
2022/10/28 02:12:19;;;;;;;5.00;3.35;;;;;;;-146.48;100.00;60459.00;5268260;28;20131;-71
2022/10/28 02:15:33;;;;;;;11.80;3.22;;;;;;;-146.48;100.00;60459.00;5304602;28;20028;-71
2022/10/28 02:18:19;;;;;;;6.45;3.58;;;;;;;-146.48;100.00;60459.00;5305190;28;20032;-70
2022/10/28 02:21:05;;;;;;;6.00;2.97;;;;;;;-146.48;100.00;60459.00;5304459;28;20039;-70
2022/10/28 02:24:05;;;;;;;6.65;2.85;;;;;;;-146.48;100.00;60459.00;5303308;28;20031;-70
2022/10/28 02:26:43;;;;;;;4.97;2.90;;;;;;;-146.48;100.00;60459.00;5304297;28;20043;-70
2022/10/28 02:29:26;;;;;;;7.78;2.70;;;;;;;-146.48;100.00;60459.00;5304078;28;20118;-70
2022/10/28 02:32:04;;;;;;;7.40;3.10;;;;;;;-146.48;100.00;60459.00;5304699;28;20025;-69
2022/10/28 02:34:44;;;;;;;6.77;2.77;;;;;;;-146.48;100.00;60459.00;5304487;28;20020;-71
2022/10/28 02:37:24;;;;;;;10.15;2.83;;;;;;;-146.48;100.00;60459.00;5304083;28;20081;-71
2022/10/28 02:40:04;;;;;;;7.82;2.72;;;;;;;-146.48;100.00;60459.00;5304249;28;20024;-69
2022/10/28 02:42:39;;;;;;;4.60;2.70;;;;;;;-146.48;100.00;60459.00;5303983;28;20042;-71
2022/10/28 02:45:16;;;;;;;6.07;2.17;;;;;;;-146.48;100.00;60459.00;5303921;28;20055;-69
2022/10/28 02:47:54;;;;;;;7.43;2.85;;;;;;;-146.48;100.00;60459.00;5303998;28;20032;-69
2022/10/28 02:50:32;;;;;;;6.45;1.95;;;;;;;-146.48;100.00;60459.00;5303363;28;20081;-70
2022/10/28 02:53:12;;;;;;;6.03;2.25;;;;;;;-146.48;100.00;60459.00;5304653;28;20027;-68
2022/10/28 02:55:50;;;;;;;8.50;2.75;;;;;;;-146.48;100.00;60459.00;5303903;28;20452;-69
2022/10/28 02:58:21;;;;;;;7.25;1.90;;;;;;;-146.48;100.00;60459.00;5303629;28;20038;-69
2022/10/28 03:00:53;;;;;;;5.90;1.98;;;;;;;-146.48;100.00;60459.00;5303637;28;20106;-71
2022/10/28 03:03:24;;;;;;;8.65;2.00;;;;;;;-146.48;100.00;60459.00;5304043;28;20487;-71
2022/10/28 03:05:55;;;;;;;5.78;1.85;;;;;;;-146.48;100.00;60459.00;5303327;28;20031;-71
2022/10/28 03:08:26;;;;;;;6.85;2.25;;;;;;;-146.48;100.00;60459.00;5303047;28;20024;-72
2022/10/28 03:10:58;;;;;;;5.35;1.60;;;;;;;-146.48;100.00;60459.00;5303702;28;20030;-71
2022/10/28 03:13:29;;;;;;;6.43;1.88;;;;;;;-146.48;100.00;60459.00;5302525;28;20057;-71
2022/10/28 03:16:00;;;;;;;7.10;1.75;;;;;;;-146.48;100.00;60459.00;5304093;28;20028;-71
2022/10/28 03:18:31;;;;;;;7.18;1.77;;;;;;;-146.48;100.00;60459.00;5302321;28;20028;-71
2022/10/28 03:21:03;;;;;;;6.25;1.30;;;;;;;-146.48;100.00;60459.00;5303704;28;20107;-71
2022/10/28 03:23:34;;;;;;;8.43;2.03;;;;;;;-146.48;100.00;60459.00;5303037;28;20024;-71
2022/10/28 03:26:05;;;;;;;8.38;2.50;;;;;;;-146.48;100.00;60459.00;5302840;28;20107;-71
2022/10/28 03:28:37;;;;;;;7.70;1.88;;;;;;;-146.48;100.00;60459.00;5302742;28;20020;-71
2022/10/28 03:31:08;;;;;;;7.43;1.67;;;;;;;-146.48;100.00;60459.00;5303736;28;20429;-71
2022/10/28 03:33:39;;;;;;;6.85;2.08;;;;;;;-146.48;100.00;60459.00;5302126;28;20031;-71
2022/10/28 03:36:11;;;;;;;8.02;2.10;;;;;;;-146.48;100.00;60459.00;5303423;28;20059;-71
2022/10/28 03:38:42;;;;;;;7.90;2.20;;;;;;;-146.48;100.00;60459.00;5302495;28;20023;-71
2022/10/28 03:41:13;;;;;;;6.80;1.73;;;;;;;-146.48;100.00;60459.00;5302668;28;20045;-71
2022/10/28 03:43:45;;;;;;;7.78;1.83;;;;;;;-146.48;100.00;60459.00;5302856;28;20020;-71
2022/10/28 03:46:16;;;;;;;9.35;2.17;;;;;;;-146.48;100.00;60459.00;5303077;28;20028;-71
2022/10/28 03:48:47;;;;;;;8.43;2.05;;;;;;;-146.48;100.00;60459.00;5301832;28;20356;-71
2022/10/28 03:51:18;;;;;;;6.85;1.70;;;;;;;-146.48;100.00;60459.00;5303092;28;20048;-71
2022/10/28 03:53:50;;;;;;;7.30;2.03;;;;;;;-146.48;100.00;60459.00;5301777;28;20024;-71
2022/10/28 03:56:21;;;;;;;7.63;2.65;;;;;;;-146.48;100.00;60459.00;5303081;28;20028;-71
2022/10/28 03:58:52;;;;;;;5.28;1.45;;;;;;;-146.48;100.00;60459.00;5302484;28;20055;-71
2022/10/28 04:01:23;;;;;;;11.32;2.13;;;;;;;-146.48;100.00;60459.00;5301732;28;20063;-71
2022/10/28 04:03:55;;;;;;;7.30;2.25;;;;;;;-146.48;100.00;60459.00;5302563;28;20112;-71
2022/10/28 04:06:26;;;;;;;10.75;1.60;;;;;;;-146.48;100.00;60459.00;5302575;28;20024;-71
2022/10/28 04:08:57;;;;;;;5.03;2.15;;;;;;;-146.48;100.00;60459.00;5301947;28;20032;-71
2022/10/28 04:11:28;;;;;;;4.78;1.75;;;;;;;-146.48;100.00;60459.00;5302133;28;20048;-72
2022/10/28 04:14:00;;;;;;;3.22;1.50;;;;;;;-146.48;100.00;60459.00;5302390;28;20020;-71
2022/10/28 04:16:31;;;;;;;8.80;1.95;;;;;;;-146.48;100.00;60459.00;5301350;28;20027;-71
2022/10/28 04:19:02;;;;;;;6.03;1.67;;;;;;;-146.48;100.00;60459.00;5302769;28;20050;-71
2022/10/28 04:21:34;;;;;;;6.35;1.58;;;;;;;-146.48;100.00;60459.00;5301758;28;20032;-71
2022/10/28 04:24:05;;;;;;;6.45;1.55;;;;;;;-146.48;100.00;60459.00;5301624;28;20039;-69
2022/10/28 04:26:36;;;;;;;6.32;2.13;;;;;;;-146.48;100.00;60459.00;5301868;28;20527;-71
2022/10/28 04:29:08;;;;;;;8.73;1.77;;;;;;;-146.48;100.00;60459.00;5301795;28;20055;-69
2022/10/28 04:31:39;;;;;;;7.78;1.90;;;;;;;-146.48;100.00;60459.00;5302369;28;20043;-71
2022/10/28 04:34:10;;;;;;;11.32;2.28;;;;;;;-146.48;100.00;60459.00;5302534;28;20058;-71
2022/10/28 04:36:41;;;;;;;6.35;1.75;;;;;;;-146.48;100.00;60459.00;5300953;28;20074;-70
2022/10/28 04:39:13;;;;;;;6.63;1.90;;;;;;;-146.48;100.00;60459.00;5302332;28;20062;-69
2022/10/28 04:41:44;;;;;;;5.85;1.85;;;;;;;-146.48;100.00;60459.00;5301987;28;20112;-69
2022/10/28 04:44:15;;;;;;;7.03;1.70;;;;;;;-146.48;100.00;60459.00;5301556;28;20032;-69
2022/10/28 04:46:46;;;;;;;6.82;2.00;;;;;;;-146.48;100.00;60459.00;5301682;28;20024;-70
2022/10/28 04:49:18;;;;;;;10.35;2.35;;;;;;;-146.48;100.00;60459.00;5302171;28;20570;-70
2022/10/28 04:51:49;;;;;;;7.90;1.75;;;;;;;-146.48;100.00;60459.00;5300874;28;20562;-70
2022/10/28 04:54:20;;;;;;;9.85;2.40;;;;;;;-146.48;100.00;60459.00;5302153;28;20031;-69
2022/10/28 04:56:53;;;;;;;7.97;1.95;;;;;;;-146.48;100.00;60459.00;5301608;28;20471;-69
2022/10/28 04:59:25;;;;;;;9.23;1.60;;;;;;;-146.48;100.00;60459.00;5301813;28;20336;-70
2022/10/28 05:01:56;;;;;;;9.05;2.35;;;;;;;-146.48;100.00;60459.00;5301867;28;20025;-70
2022/10/28 05:04:27;;;;;;;9.10;2.10;;;;;;;-146.48;100.00;60459.00;5300731;28;20040;-70
2022/10/28 05:06:58;;;;;;;10.38;1.88;;;;;;;-146.48;100.00;60459.00;5302018;28;20429;-69
2022/10/28 05:09:30;;;;;;;6.53;1.85;;;;;;;-146.48;100.00;60459.00;5301472;28;20410;-69
2022/10/28 05:12:01;;;;;;;10.73;1.90;;;;;;;-146.48;100.00;60459.00;5301368;28;20024;-69
2022/10/28 05:14:32;;;;;;;6.43;1.92;;;;;;;-146.48;100.00;60459.00;5301605;28;20028;-70
2022/10/28 05:17:03;;;;;;;9.10;2.00;;;;;;;-146.48;100.00;60459.00;5301970;28;20020;-70
2022/10/28 05:19:35;;;;;;;5.95;2.10;;;;;;;-146.48;100.00;60459.00;5300804;28;20469;-70
2022/10/28 05:22:06;;;;;;;9.80;2.38;;;;;;;-146.48;100.00;60459.00;5302416;28;20379;-70
2022/10/28 05:24:37;;;;;;;5.43;1.60;;;;;;;-146.48;100.00;60459.00;5301287;28;20110;-70
2022/10/28 05:27:08;;;;;;;9.10;2.30;;;;;;;-146.48;100.00;60459.00;5301066;28;20047;-70
2022/10/28 05:29:40;;;;;;;10.27;2.60;;;;;;;-146.48;100.00;60459.00;5301156;28;20048;-70
2022/10/28 05:32:11;;;;;;;10.68;2.30;;;;;;;-146.48;100.00;60459.00;5301676;28;20387;-70
2022/10/28 05:34:42;;;;;;;7.38;1.90;;;;;;;-146.48;100.00;60459.00;5305114;28;20489;-70
2022/10/28 05:37:13;;;;;;;10.43;2.38;;;;;;;-146.48;100.00;60459.00;5305543;28;20328;-70
2022/10/28 05:39:45;;;;;;;10.57;2.17;;;;;;;-146.48;100.00;60459.00;5304269;28;20360;-70
2022/10/28 05:42:16;;;;;;;5.65;1.98;;;;;;;-146.48;100.00;60459.00;5305661;28;20081;-72
2022/10/28 05:44:47;;;;;;;6.72;2.13;;;;;;;-146.48;100.00;60459.00;5300380;28;20028;-69
2022/10/28 05:47:19;;;;;;;8.95;2.05;;;;;;;-146.48;100.00;60459.00;5304505;28;20040;-70
2022/10/28 05:49:50;;;;;;;7.00;2.08;;;;;;;-146.48;100.00;60459.00;5304689;28;20028;-69
2022/10/28 05:52:21;;;;;;;8.18;2.10;;;;;;;-146.48;100.00;60459.00;5305188;28;20052;-70
2022/10/28 05:54:53;;;;;;;8.13;1.58;;;;;;;-146.48;100.00;60459.00;5304062;28;20032;-70
2022/10/28 05:57:24;;;;;;;5.97;1.77;;;;;;;-146.48;100.00;60459.00;5304820;28;20052;-70
2022/10/28 05:59:55;;;;;;;8.27;2.20;;;;;;;-146.48;100.00;60459.00;5304920;28;20383;-71
2022/10/28 06:02:26;;;;;;;8.55;2.20;;;;;;;-146.48;100.00;60459.00;5303588;28;20035;-70
2022/10/28 06:04:58;;;;;;;8.40;2.28;;;;;;;-146.48;100.00;60459.00;5305131;28;20086;-69
2022/10/28 06:07:29;;;;;;;8.55;1.83;;;;;;;-146.48;100.00;60459.00;5303634;28;20034;-69
2022/10/28 06:10:01;;;;;;;6.38;1.98;;;;;;;-146.48;100.00;60459.00;5304972;28;20020;-69
2022/10/28 06:12:33;;;;;;;7.13;1.80;;;;;;;-146.48;100.00;60459.00;5304282;28;20031;-70
2022/10/28 06:15:05;;;;;;;7.65;1.88;;;;;;;-146.48;100.00;60459.00;5304016;28;20132;-69
2022/10/28 06:17:36;;;;;;;9.88;3.10;;;;;;;-146.48;100.00;60459.00;5300962;28;20066;-69
2022/10/28 06:20:08;;;;;;;8.23;2.03;;;;;;;-146.48;100.00;60459.00;5304370;28;20020;-70
2022/10/28 06:22:50;;;;;;;9.75;2.60;;;;;;;-146.48;100.00;60459.00;5302469;28;20479;-71
2022/10/28 06:25:22;;;;;;;12.05;3.25;;;;;;;-146.48;100.00;60459.00;5304496;28;20020;-71
2022/10/28 06:27:58;;;;;;;8.68;3.00;;;;;;;-146.48;100.00;60459.00;5303712;28;20052;-71
2022/10/28 06:30:29;;;;;;;9.77;2.72;;;;;;;-146.48;100.00;60459.00;5303025;28;20044;-72
2022/10/28 06:33:01;;;;;;;12.68;2.67;;;;;;;-146.48;100.00;60459.00;5304211;28;20024;-72
2022/10/28 06:35:32;;;;;;;8.20;2.20;;;;;;;-146.48;100.00;60459.00;5303086;28;20024;-72
2022/10/28 06:38:03;;;;;;;9.52;2.25;;;;;;;-146.48;100.00;60459.00;5305074;28;20076;-72
2022/10/28 06:40:34;;;;;;;11.65;2.13;;;;;;;-146.48;100.00;60459.00;5304355;28;20028;-72
2022/10/28 06:43:07;;;;;;;7.05;2.05;;;;;;;-146.48;100.00;60459.00;5300120;28;20387;-71
2022/10/28 06:45:38;;;;;;;6.25;1.80;;;;;;;-146.48;100.00;60459.00;5303625;28;20042;-71
2022/10/28 06:48:10;;;;;;;8.45;2.45;;;;;;;-146.48;100.00;60459.00;5303674;28;20024;-71
2022/10/28 06:50:41;;;;;;;8.70;2.58;;;;;;;-146.48;100.00;60459.00;5302340;28;20103;-71
2022/10/28 06:53:13;;;;;;;8.40;2.15;;;;;;;-146.48;100.00;60459.00;5304107;28;20455;-71
2022/10/28 06:55:51;;;;;;;8.30;2.33;;;;;;;-146.48;100.00;60459.00;5303341;28;20039;-71
2022/10/28 06:58:24;;;;;;;11.70;2.08;;;;;;;-146.48;100.00;60459.00;5303275;28;20483;-70
2022/10/28 07:00:55;;;;;;;9.90;2.70;;;;;;;-146.48;100.00;60459.00;5303243;28;20042;-70
2022/10/28 07:03:26;;;;;;;6.97;2.25;;;;;;;-146.48;100.00;60459.00;5303357;28;20475;-71
2022/10/28 07:05:58;;;;;;;6.72;1.70;;;;;;;-146.48;100.00;60459.00;5303048;28;20024;-70
2022/10/28 07:08:30;;;;;;;10.05;2.50;;;;;;;-146.48;100.00;60459.00;5303023;28;20027;-70
2022/10/28 07:11:01;;;;;;;9.75;2.20;;;;;;;-146.48;100.00;60459.00;5302839;28;20058;-70
2022/10/28 07:13:33;;;;;;;6.07;2.45;;;;;;;-146.48;100.00;60459.00;5303348;28;20028;-69
2022/10/28 07:16:04;;;;;;;7.53;2.65;;;;;;;-146.48;100.00;60459.00;5303546;28;20024;-70
2022/10/28 07:18:36;;;;;;;12.73;3.17;;;;;;;-146.48;100.00;60459.00;5302262;28;20495;-70
2022/10/28 07:21:07;;;;;;;8.82;2.40;;;;;;;-146.48;100.00;60459.00;5300603;28;20044;-71
2022/10/28 07:23:38;;;;;;;9.50;2.50;;;;;;;-146.48;100.00;60459.00;5301782;28;20188;-72
2022/10/28 07:26:09;;;;;;;9.73;2.95;;;;;;;-146.48;100.00;60459.00;5302491;28;20455;-72
2022/10/28 07:28:41;;;;;;;8.63;2.67;;;;;;;-146.48;100.00;60459.00;5299271;28;20060;-71
2022/10/28 07:31:13;;;;;;;8.77;2.55;;;;;;;-146.48;100.00;60459.00;5303097;28;20030;-70
2022/10/28 07:33:50;;;;;;;9.48;2.38;;;;;;;-146.48;100.00;60459.00;5301439;28;20065;-71
2022/10/28 07:36:22;;;;;;;7.72;2.40;;;;;;;-146.48;100.00;60459.00;5302708;28;20020;-70
2022/10/28 07:38:53;;;;;;;8.10;2.88;;;;;;;-146.48;100.00;60459.00;5301853;28;20042;-70
2022/10/28 07:41:25;;;;;;;11.73;2.97;;;;;;;-146.48;100.00;60459.00;5302416;28;20024;-71
2022/10/28 07:43:56;;;;;;;11.18;2.70;;;;;;;-146.48;100.00;60459.00;5302499;28;20479;-71
2022/10/28 07:46:28;;;;;;;8.48;2.47;;;;;;;-146.48;100.00;60459.00;5301132;28;20016;-71
2022/10/28 07:48:59;;;;;;;12.35;3.20;;;;;;;-146.48;100.00;60459.00;5302911;28;20437;-71
2022/10/28 07:51:30;;;;;;;9.43;2.60;;;;;;;-146.48;100.00;60459.00;5301974;28;20027;-71
2022/10/28 07:54:02;;;;;;;8.10;2.30;;;;;;;-146.48;100.00;60459.00;5301382;28;20069;-70
2022/10/28 07:56:33;;;;;;;9.35;2.83;;;;;;;-146.48;100.00;60459.00;5301357;28;20022;-72
2022/10/28 07:59:04;;;;;;;8.88;2.22;;;;;;;-146.48;100.00;60459.00;5302313;28;20024;-71
2022/10/28 08:01:36;;;;;;;8.52;2.72;;;;;;;-146.48;100.00;60459.00;5300778;28;20501;-70
2022/10/28 08:04:07;;;;;;;10.63;3.05;;;;;;;-146.48;100.00;60459.00;5302307;28;20543;-70
2022/10/28 08:06:38;;;;;;;8.93;2.30;;;;;;;-146.48;100.00;60459.00;5301745;28;20024;-70
2022/10/28 08:09:10;;;;;;;6.43;2.13;;;;;;;-146.48;100.00;60459.00;5301354;28;20424;-70
2022/10/28 08:11:41;;;;;;;8.27;2.60;;;;;;;-146.48;100.00;60459.00;5301816;28;20397;-70
2022/10/28 08:14:13;;;;;;;9.05;2.30;;;;;;;-146.48;100.00;60459.00;5301540;28;20085;-70
2022/10/28 08:16:45;;;;;;;6.63;1.98;;;;;;;-146.48;100.00;60459.00;5301223;28;20028;-69
2022/10/28 08:19:16;;;;;;;10.30;2.80;;;;;;;-146.48;100.00;60459.00;5299982;28;20077;-70
2022/10/28 08:21:47;;;;;;;13.10;3.05;;;;;;;-146.48;100.00;60459.00;5298993;28;20028;-70
2022/10/28 08:24:18;;;;;;;8.40;2.20;;;;;;;-146.48;100.00;60459.00;5301491;28;20060;-70
2022/10/28 08:26:50;;;;;;;10.90;2.50;;;;;;;-146.48;100.00;60459.00;5301317;28;20498;-70
2022/10/28 08:29:21;;;;;;;7.03;1.85;;;;;;;-146.48;100.00;60459.00;5301072;28;20414;-71
2022/10/28 08:31:52;;;;;;;9.40;2.63;;;;;;;-146.48;100.00;60459.00;5300930;28;20028;-71
2022/10/28 08:34:28;;;;;;;7.07;2.55;;;;;;;-146.48;100.00;60459.00;5300143;28;20016;-71
2022/10/28 08:36:59;;;;;;;12.35;2.75;;;;;;;-146.48;100.00;60459.00;5301087;28;20024;-72
2022/10/28 08:39:30;;;;;;;8.80;2.55;;;;;;;-146.48;100.00;60459.00;5301495;28;20020;-75
2022/10/28 08:42:23;;;;;;;8.77;2.85;;;;;;;-146.48;100.00;60459.00;5301518;28;20024;-73
2022/10/28 08:45:23;;;;;;;12.27;2.30;;;;;;;-146.48;100.00;60459.00;5302098;28;20071;-72
2022/10/28 08:48:26;;;;;;;8.48;3.08;;;;;;;-146.48;100.00;60459.00;5299359;28;20031;-72
2022/10/28 08:51:19;;;;;;;8.02;2.17;;;;;;;-146.48;100.00;60459.00;5301415;28;20051;-72
2022/10/28 08:53:55;;;;;;;6.78;2.03;;;;;;;-146.48;100.00;60459.00;5301255;28;20077;-72
2022/10/28 08:56:32;;;;;;;12.25;2.30;;;;;;;-146.48;100.00;60459.00;5300758;28;20111;-73
2022/10/28 08:59:11;;;;;;;9.88;2.63;;;;;;;-146.48;100.00;60459.00;5302117;28;20051;-73
2022/10/28 09:01:48;;;;;;;6.93;1.92;;;;;;;-146.48;100.00;60459.00;5301717;28;20095;-73
2022/10/28 09:04:39;;;;;;;8.15;2.20;;;;;;;-146.48;100.00;60459.00;5301008;28;20028;-73
2022/10/28 09:07:17;;;;;;;9.65;2.05;;;;;;;-146.48;100.00;60459.00;5302870;28;20495;-73
2022/10/28 09:09:50;;;;;;;7.63;1.80;;;;;;;-146.48;100.00;60459.00;5305577;28;20024;-72
2022/10/28 09:12:28;;;;;;;9.30;2.25;;;;;;;-146.48;100.00;60459.00;5305645;28;20427;-74
2022/10/28 09:15:23;;;;;;;10.02;2.05;;;;;;;-146.48;100.00;60459.00;5306145;28;20043;-73
2022/10/28 09:17:59;;;;;;;14.73;2.30;;;;;;;-146.48;100.00;60459.00;5305057;28;20051;-72
2022/10/28 09:20:52;;;;;;;10.05;1.80;;;;;;;-146.48;100.00;60459.00;5305554;28;20069;-73
2022/10/28 09:23:32;;;;;;;8.32;1.83;;;;;;;-146.48;100.00;60459.00;5305583;28;20073;-73
2022/10/28 09:26:41;;;;;;;9.45;2.78;;;;;;;-146.48;100.00;60459.00;5305088;28;20032;-73
2022/10/28 09:29:43;;;;;;;7.53;1.48;;;;;;;-146.48;100.00;60459.00;5305696;28;20051;-72
2022/10/28 09:32:27;;;;;;;12.20;2.10;;;;;;;-146.48;100.00;60459.00;5304659;28;20039;-73
2022/10/28 09:35:05;;;;;;;10.02;2.22;;;;;;;-146.48;100.00;60459.00;5305803;28;20027;-72
2022/10/28 09:37:40;;;;;;;8.73;2.40;;;;;;;-146.48;100.00;60459.00;5305251;28;20432;-73
2022/10/28 09:40:15;;;;;;;8.23;1.90;;;;;;;-146.48;100.00;60459.00;5304712;28;20028;-74
2022/10/28 09:43:01;;;;;;;7.85;1.80;;;;;;;-146.48;100.00;60459.00;5304950;28;20403;-73
2022/10/28 09:45:36;;;;;;;8.10;2.60;;;;;;;-146.48;100.00;60459.00;5303558;28;20111;-74
2022/10/28 09:48:20;;;;;;;9.60;2.10;;;;;;;-146.48;100.00;60459.00;5305516;28;20020;-74
2022/10/28 09:50:54;;;;;;;9.55;2.13;;;;;;;-146.48;100.00;60459.00;5304948;28;20594;-74
2022/10/28 09:53:39;;;;;;;7.82;2.28;;;;;;;-146.48;100.00;60459.00;5304152;28;20042;-74
2022/10/28 09:56:11;;;;;;;13.30;2.15;;;;;;;-146.48;100.00;60459.00;5305746;28;20035;-75
2022/10/28 09:58:46;;;;;;;12.70;2.42;;;;;;;-146.48;100.00;60459.00;5304872;28;20020;-74
2022/10/28 10:01:18;;;;;;;9.95;2.05;;;;;;;-146.48;100.00;60459.00;5304632;28;20042;-75
2022/10/28 10:03:50;;;;;;;6.93;2.47;;;;;;;-146.48;100.00;60459.00;5304411;28;20028;-74
2022/10/28 10:06:30;;;;;;;9.38;1.98;;;;;;;-146.48;100.00;60459.00;5304624;28;20054;-74
2022/10/28 10:09:02;;;;;;;11.30;2.00;;;;;;;-146.48;100.00;60459.00;5304944;28;20024;-74
2022/10/28 10:11:41;;;;;;;10.18;2.15;;;;;;;-146.48;100.00;60459.00;5304648;28;20367;-74
2022/10/28 10:14:21;;;;;;;6.38;1.70;;;;;;;-146.48;100.00;60459.00;5304200;28;20020;-74
2022/10/28 10:17:01;;;;;;;7.80;2.10;;;;;;;-146.48;100.00;60459.00;5303959;28;20028;-73
2022/10/28 10:19:58;;;;;;;10.20;1.88;;;;;;;-146.48;100.00;60459.00;5303889;28;20100;-74
2022/10/28 10:22:34;;;;;;;6.72;2.25;;;;;;;-146.48;100.00;60459.00;5303236;28;20024;-74
2022/10/28 10:25:17;;;;;;;9.63;1.67;;;;;;;-146.48;100.00;60459.00;5304935;28;20028;-74
2022/10/28 10:27:56;;;;;;;11.85;2.20;;;;;;;-146.48;100.00;60459.00;5303223;28;20032;-73
2022/10/28 10:30:35;;;;;;;6.22;1.38;;;;;;;-146.48;100.00;60459.00;5304043;28;20093;-74
2022/10/28 10:33:18;;;;;;;13.10;1.98;;;;;;;-146.48;100.00;60459.00;5304606;28;20365;-74
2022/10/28 10:36:11;;;;;;;8.27;1.98;;;;;;;-146.48;100.00;60459.00;5303362;28;20097;-74
2022/10/28 10:39:01;;;;;;;12.73;2.95;;;;;;;-146.48;100.00;60459.00;5303737;28;20032;-74
2022/10/28 10:41:36;;;;;;;12.88;2.00;;;;;;;-146.48;100.00;60459.00;5303129;28;20039;-74
2022/10/28 10:44:19;;;;;;;12.50;2.75;;;;;;;-146.48;100.00;60459.00;5303964;28;20107;-73
2022/10/28 10:47:12;;;;;;;11.07;1.90;;;;;;;-146.48;100.00;60459.00;5303561;28;20028;-71
2022/10/28 10:49:43;;;;;;;6.40;1.67;;;;;;;-146.48;100.00;60459.00;5302672;28;20039;-72
2022/10/28 10:52:22;;;;;;;9.02;1.63;;;;;;;-146.48;100.00;60459.00;5304400;28;20020;-72
2022/10/28 10:55:06;;;;;;;11.25;1.85;;;;;;;-146.48;100.00;60459.00;5303626;28;20494;-72
2022/10/28 10:57:40;;;;;;;8.55;1.42;;;;;;;-146.48;100.00;60459.00;5281391;28;20479;-72
2022/10/28 11:00:16;;;;;;;12.88;2.67;;;;;;;-146.48;100.00;60459.00;5282787;28;20021;-72
2022/10/28 11:02:48;;;;;;;9.68;2.05;;;;;;;-146.48;100.00;60459.00;5281456;28;20072;-72
2022/10/28 11:05:21;;;;;;;13.57;1.60;;;;;;;-146.48;100.00;60459.00;5282958;28;20408;-72
2022/10/28 11:07:53;;;;;;;10.48;1.83;;;;;;;-146.48;100.00;60459.00;5282242;28;20411;-72
2022/10/28 11:10:30;;;;;;;9.45;1.95;;;;;;;-146.48;100.00;60459.00;5281781;28;20025;-72
2022/10/28 11:13:24;;;;;;;10.60;2.45;;;;;;;-146.48;100.00;60459.00;5282648;28;20032;-72
2022/10/28 11:16:16;;;;;;;11.52;2.03;;;;;;;-146.48;100.00;60459.00;5282402;28;20029;-72
2022/10/28 11:18:52;;;;;;;7.60;1.27;;;;;;;-146.48;100.00;60459.00;5280801;28;20017;-73
2022/10/28 11:21:42;;;;;;;12.13;1.88;;;;;;;-146.48;100.00;60459.00;5282068;28;20029;-73
2022/10/28 11:24:41;;;;;;;14.38;1.83;;;;;;;-146.48;100.00;60459.00;5281339;28;20032;-73
2022/10/28 11:27:37;;;;;;;7.03;1.60;;;;;;;-146.48;100.00;60459.00;5282328;28;20024;-73
2022/10/28 11:30:15;;;;;;;6.63;1.38;;;;;;;-146.48;100.00;60459.00;5281174;28;20056;-73
2022/10/28 11:33:08;;;;;;;8.57;1.70;;;;;;;-146.48;100.00;60459.00;5281036;28;20068;-73
2022/10/28 11:36:05;;;;;;;8.52;1.83;;;;;;;-146.48;100.00;60459.00;5281519;28;20059;-73
2022/10/28 11:38:56;;;;;;;7.93;2.20;;;;;;;-146.48;100.00;60459.00;5280725;28;20051;-73
2022/10/28 11:41:32;;;;;;;7.93;1.70;;;;;;;-146.48;100.00;60459.00;5281290;28;20125;-71
2022/10/28 11:44:17;;;;;;;9.20;2.40;;;;;;;-146.48;100.00;60459.00;5282008;28;20033;-72
2022/10/28 11:47:09;;;;;;;11.95;1.85;;;;;;;-146.48;100.00;60459.00;5281843;28;20539;-72
2022/10/28 11:50:21;;;;;;;8.20;1.58;;;;;;;-146.48;100.00;60459.00;5302280;28;20035;-72